AUA730B LQSA-LOWW
Flight info
| Callsign | AUA730B |
|---|---|
| Flight time | 1h 2m |
| Altitude | 36000 |
| Route | BOSNA DCT IRDIV DCT NOVLO DCT ZAG DCT OBUTI OBUTI2W |
| Aircraft | A320/M-SDE3FGHIRWY/LB1 |
Departure
| Time | 2026-05-04 20:12 |
|---|---|
| Airport | Sarajevo International Airport (LQSA) |
Arrival
| Time | 2026-05-04 21:14 |
|---|---|
| Airport | Vienna International Airport (LOWW) |
| Time | Latitude | Longitude | Altitude | Speed | Heading |
|---|---|---|---|---|---|
| 2026-05-04 19:53 | 43.82518 | 18.33687 | 1687 ft | 0 kts | 28° |
| 2026-05-04 20:05 | 43.82517 | 18.33686 | 1684 ft | 2 kts | 28° |
| 2026-05-04 20:05 | 43.82499 | 18.33674 | 1683 ft | 1 kts | 38° |
| 2026-05-04 20:06 | 43.82481 | 18.33651 | 1692 ft | 4 kts | 59° |
| 2026-05-04 20:06 | 43.82472 | 18.33628 | 1685 ft | 1 kts | 62° |
| 2026-05-04 20:06 | 43.82471 | 18.33625 | 1685 ft | 0 kts | 62° |
| 2026-05-04 20:08 | 43.82471 | 18.33626 | 1685 ft | 1 kts | 61° |
| 2026-05-04 20:08 | 43.82453 | 18.33674 | 1684 ft | 11 kts | 126° |
| 2026-05-04 20:08 | 43.82409 | 18.33758 | 1686 ft | 10 kts | 121° |
| 2026-05-04 20:08 | 43.82375 | 18.33848 | 1691 ft | 10 kts | 118° |
| 2026-05-04 20:09 | 43.82343 | 18.33933 | 1692 ft | 10 kts | 116° |
| 2026-05-04 20:09 | 43.82303 | 18.34042 | 1693 ft | 14 kts | 117° |
| 2026-05-04 20:09 | 43.82256 | 18.34164 | 1696 ft | 14 kts | 118° |
| 2026-05-04 20:09 | 43.82211 | 18.34286 | 1698 ft | 16 kts | 117° |
| 2026-05-04 20:10 | 43.82157 | 18.34429 | 1701 ft | 17 kts | 114° |
| 2026-05-04 20:10 | 43.82103 | 18.34564 | 1706 ft | 15 kts | 126° |
| 2026-05-04 20:10 | 43.82016 | 18.34627 | 1708 ft | 15 kts | 180° |
| 2026-05-04 20:10 | 43.81938 | 18.34544 | 1707 ft | 16 kts | 275° |
| 2026-05-04 20:11 | 43.81956 | 18.34486 | 1704 ft | 1 kts | 300° |
| 2026-05-04 20:11 | 43.82020 | 18.34321 | 1697 ft | 57 kts | 300° |
| 2026-05-04 20:11 | 43.82328 | 18.33500 | 1685 ft | 132 kts | 297° |
| 2026-05-04 20:11 | 43.82824 | 18.32192 | 1991 ft | 159 kts | 298° |
| 2026-05-04 20:12 | 43.83407 | 18.30885 | 2787 ft | 162 kts | 316° |
| 2026-05-04 20:12 | 43.84417 | 18.30222 | 3479 ft | 163 kts | 345° |
| 2026-05-04 20:12 | 43.85568 | 18.29774 | 3883 ft | 183 kts | 344° |
| 2026-05-04 20:12 | 43.86864 | 18.29244 | 4247 ft | 207 kts | 342° |
| 2026-05-04 20:13 | 43.88144 | 18.28134 | 4674 ft | 232 kts | 315° |
| 2026-05-04 20:13 | 43.89396 | 18.26543 | 5232 ft | 256 kts | 321° |
| 2026-05-04 20:13 | 43.90853 | 18.25001 | 6022 ft | 268 kts | 324° |
| 2026-05-04 20:13 | 43.92382 | 18.23472 | 6980 ft | 273 kts | 326° |
| 2026-05-04 20:14 | 43.93937 | 18.21924 | 7971 ft | 277 kts | 326° |
| 2026-05-04 20:14 | 43.95500 | 18.20345 | 8956 ft | 280 kts | 326° |
| 2026-05-04 20:14 | 43.97073 | 18.18727 | 9954 ft | 283 kts | 326° |
| 2026-05-04 20:14 | 43.98676 | 18.17059 | 10619 ft | 298 kts | 325° |
| 2026-05-04 20:15 | 44.00397 | 18.15254 | 11022 ft | 320 kts | 325° |
| 2026-05-04 20:15 | 44.02191 | 18.13353 | 11745 ft | 328 kts | 325° |
| 2026-05-04 20:15 | 44.04013 | 18.11414 | 12615 ft | 332 kts | 325° |
| 2026-05-04 20:15 | 44.05855 | 18.09447 | 13485 ft | 335 kts | 325° |
| 2026-05-04 20:16 | 44.07715 | 18.07464 | 14288 ft | 339 kts | 325° |
| 2026-05-04 20:16 | 44.09598 | 18.05459 | 15009 ft | 343 kts | 325° |
| 2026-05-04 20:16 | 44.11507 | 18.03425 | 15739 ft | 347 kts | 325° |
| 2026-05-04 20:16 | 44.13434 | 18.01367 | 16471 ft | 351 kts | 325° |
| 2026-05-04 20:17 | 44.15382 | 17.99282 | 17189 ft | 355 kts | 325° |
| 2026-05-04 20:17 | 44.17350 | 17.97173 | 17914 ft | 359 kts | 325° |
| 2026-05-04 20:17 | 44.19344 | 17.95037 | 18600 ft | 363 kts | 325° |
| 2026-05-04 20:17 | 44.21353 | 17.92886 | 19226 ft | 366 kts | 324° |
| 2026-05-04 20:18 | 44.23351 | 17.90743 | 19865 ft | 369 kts | 324° |
| 2026-05-04 20:18 | 44.25390 | 17.88552 | 20522 ft | 371 kts | 324° |
| 2026-05-04 20:18 | 44.27442 | 17.86345 | 21186 ft | 374 kts | 324° |
| 2026-05-04 20:18 | 44.29511 | 17.84120 | 21842 ft | 377 kts | 324° |
| 2026-05-04 20:19 | 44.31590 | 17.81884 | 22513 ft | 379 kts | 324° |
| 2026-05-04 20:19 | 44.33690 | 17.79623 | 23149 ft | 382 kts | 324° |
| 2026-05-04 20:19 | 44.35804 | 17.77344 | 23773 ft | 385 kts | 324° |
| 2026-05-04 20:19 | 44.37944 | 17.75077 | 24289 ft | 387 kts | 326° |
| 2026-05-04 20:20 | 44.40154 | 17.72918 | 24798 ft | 389 kts | 328° |
| 2026-05-04 20:20 | 44.42419 | 17.70835 | 25312 ft | 390 kts | 329° |
| 2026-05-04 20:20 | 44.44709 | 17.68785 | 25820 ft | 392 kts | 329° |
| 2026-05-04 20:20 | 44.47011 | 17.66726 | 26295 ft | 394 kts | 329° |
| 2026-05-04 20:21 | 44.49319 | 17.64638 | 26792 ft | 395 kts | 328° |
| 2026-05-04 20:21 | 44.51623 | 17.62527 | 27267 ft | 397 kts | 328° |
| 2026-05-04 20:21 | 44.56252 | 17.58229 | 28198 ft | 401 kts | 328° |
| 2026-05-04 20:22 | 44.58578 | 17.56058 | 28626 ft | 402 kts | 328° |
| 2026-05-04 20:22 | 44.60914 | 17.53876 | 29063 ft | 404 kts | 328° |
| 2026-05-04 20:22 | 44.63261 | 17.51684 | 29475 ft | 407 kts | 328° |
| 2026-05-04 20:22 | 44.65624 | 17.49478 | 29874 ft | 408 kts | 328° |
| 2026-05-04 20:23 | 44.67995 | 17.47268 | 30266 ft | 410 kts | 328° |
| 2026-05-04 20:23 | 44.70376 | 17.45043 | 30590 ft | 412 kts | 327° |
| 2026-05-04 20:23 | 44.72768 | 17.42804 | 30897 ft | 414 kts | 327° |
| 2026-05-04 20:23 | 44.75172 | 17.40552 | 31102 ft | 416 kts | 327° |
| 2026-05-04 20:24 | 44.77541 | 17.38324 | 31137 ft | 401 kts | 327° |
| 2026-05-04 20:24 | 44.79819 | 17.36178 | 31140 ft | 389 kts | 327° |
| 2026-05-04 20:24 | 44.84282 | 17.31984 | 31150 ft | 384 kts | 327° |
| 2026-05-04 20:25 | 44.88727 | 17.27811 | 31137 ft | 384 kts | 327° |
| 2026-05-04 20:25 | 44.93139 | 17.23646 | 31136 ft | 384 kts | 327° |
| 2026-05-04 20:26 | 44.97582 | 17.19453 | 31139 ft | 384 kts | 327° |
| 2026-05-04 20:26 | 45.02016 | 17.15250 | 31127 ft | 384 kts | 327° |
| 2026-05-04 20:27 | 45.06447 | 17.11048 | 31120 ft | 383 kts | 327° |
| 2026-05-04 20:27 | 45.10877 | 17.06841 | 31103 ft | 384 kts | 327° |
| 2026-05-04 20:28 | 45.15305 | 17.02620 | 31100 ft | 384 kts | 327° |
| 2026-05-04 20:28 | 45.19733 | 16.98388 | 31098 ft | 384 kts | 327° |
| 2026-05-04 20:29 | 45.24162 | 16.94154 | 31099 ft | 384 kts | 327° |
| 2026-05-04 20:29 | 45.28592 | 16.89916 | 31097 ft | 384 kts | 327° |
| 2026-05-04 20:30 | 45.33019 | 16.85663 | 31080 ft | 384 kts | 327° |
| 2026-05-04 20:30 | 45.37452 | 16.81393 | 31082 ft | 385 kts | 326° |
| 2026-05-04 20:31 | 45.41896 | 16.77113 | 31088 ft | 386 kts | 326° |
| 2026-05-04 20:31 | 45.46343 | 16.72826 | 31093 ft | 386 kts | 326° |
| 2026-05-04 20:32 | 45.50787 | 16.68524 | 31091 ft | 386 kts | 326° |
| 2026-05-04 20:32 | 45.55200 | 16.64251 | 31095 ft | 386 kts | 326° |
| 2026-05-04 20:33 | 45.59648 | 16.59941 | 31073 ft | 386 kts | 326° |
| 2026-05-04 20:33 | 45.64095 | 16.55611 | 31075 ft | 387 kts | 326° |
| 2026-05-04 20:34 | 45.68555 | 16.51269 | 31079 ft | 388 kts | 326° |
| 2026-05-04 20:34 | 45.73017 | 16.46914 | 31083 ft | 389 kts | 326° |
| 2026-05-04 20:35 | 45.77480 | 16.42542 | 31083 ft | 389 kts | 326° |
| 2026-05-04 20:35 | 45.81947 | 16.38163 | 31095 ft | 389 kts | 326° |
| 2026-05-04 20:36 | 45.86414 | 16.33785 | 31088 ft | 389 kts | 327° |
| 2026-05-04 20:36 | 45.91400 | 16.30819 | 31082 ft | 391 kts | 347° |
| 2026-05-04 20:37 | 45.96841 | 16.30188 | 31084 ft | 394 kts | 355° |
| 2026-05-04 20:37 | 46.02322 | 16.29825 | 31081 ft | 394 kts | 355° |
| 2026-05-04 20:38 | 46.07808 | 16.29449 | 31079 ft | 395 kts | 355° |
| 2026-05-04 20:38 | 46.13295 | 16.29068 | 31077 ft | 395 kts | 355° |
| 2026-05-04 20:39 | 46.18788 | 16.28694 | 31073 ft | 395 kts | 355° |
| 2026-05-04 20:39 | 46.24282 | 16.28318 | 31086 ft | 395 kts | 355° |
| 2026-05-04 20:40 | 46.29780 | 16.27949 | 31082 ft | 395 kts | 355° |
| 2026-05-04 20:40 | 46.35276 | 16.27586 | 31077 ft | 396 kts | 355° |
| 2026-05-04 20:41 | 46.40736 | 16.26737 | 31071 ft | 394 kts | 349° |
| 2026-05-04 20:41 | 46.46150 | 16.25436 | 31064 ft | 395 kts | 349° |
| 2026-05-04 20:42 | 46.51583 | 16.24147 | 31060 ft | 396 kts | 349° |
| 2026-05-04 20:42 | 46.57033 | 16.22867 | 31059 ft | 397 kts | 349° |
| 2026-05-04 20:43 | 46.62486 | 16.21574 | 31061 ft | 397 kts | 349° |
| 2026-05-04 20:43 | 46.67954 | 16.20269 | 30762 ft | 399 kts | 349° |
| 2026-05-04 20:44 | 46.70659 | 16.19622 | 30511 ft | 399 kts | 349° |
| 2026-05-04 20:44 | 46.73380 | 16.18973 | 30024 ft | 395 kts | 349° |
| 2026-05-04 20:44 | 46.76077 | 16.18329 | 29473 ft | 391 kts | 349° |
| 2026-05-04 20:44 | 46.78743 | 16.17693 | 28966 ft | 386 kts | 349° |
| 2026-05-04 20:45 | 46.81378 | 16.17065 | 28462 ft | 382 kts | 349° |
| 2026-05-04 20:45 | 46.83991 | 16.16436 | 27970 ft | 378 kts | 349° |
| 2026-05-04 20:45 | 46.86577 | 16.15815 | 27499 ft | 375 kts | 349° |
| 2026-05-04 20:45 | 46.89142 | 16.15199 | 27023 ft | 372 kts | 349° |
| 2026-05-04 20:46 | 46.91687 | 16.14739 | 26745 ft | 365 kts | 359° |
| 2026-05-04 20:46 | 46.94156 | 16.15231 | 26657 ft | 356 kts | 15° |
| 2026-05-04 20:46 | 46.96473 | 16.16574 | 26589 ft | 360 kts | 21° |
| 2026-05-04 20:46 | 46.98774 | 16.18020 | 26507 ft | 360 kts | 21° |
| 2026-05-04 20:47 | 47.01074 | 16.19480 | 26426 ft | 360 kts | 21° |
| 2026-05-04 20:47 | 47.03373 | 16.20943 | 26345 ft | 360 kts | 21° |
| 2026-05-04 20:47 | 47.05670 | 16.22405 | 26266 ft | 360 kts | 21° |
| 2026-05-04 20:47 | 47.08032 | 16.23909 | 26116 ft | 378 kts | 22° |
| 2026-05-04 20:48 | 47.10467 | 16.25460 | 26069 ft | 383 kts | 22° |
| 2026-05-04 20:48 | 47.12926 | 16.27028 | 26082 ft | 386 kts | 22° |
| 2026-05-04 20:48 | 47.15390 | 16.28598 | 26079 ft | 386 kts | 22° |
| 2026-05-04 20:48 | 47.17856 | 16.30171 | 26075 ft | 386 kts | 22° |
| 2026-05-04 20:49 | 47.20320 | 16.31747 | 26078 ft | 387 kts | 22° |
| 2026-05-04 20:49 | 47.22754 | 16.33304 | 26072 ft | 387 kts | 22° |
| 2026-05-04 20:49 | 47.25223 | 16.34882 | 26072 ft | 387 kts | 22° |
| 2026-05-04 20:49 | 47.27690 | 16.36460 | 26075 ft | 387 kts | 22° |
| 2026-05-04 20:50 | 47.30159 | 16.38042 | 26070 ft | 387 kts | 21° |
| 2026-05-04 20:50 | 47.32626 | 16.39627 | 26070 ft | 387 kts | 22° |
| 2026-05-04 20:50 | 47.35091 | 16.41214 | 26070 ft | 387 kts | 22° |
| 2026-05-04 20:50 | 47.37558 | 16.42802 | 26071 ft | 387 kts | 22° |
| 2026-05-04 20:51 | 47.39227 | 16.43877 | 26067 ft | 387 kts | 22° |
| 2026-05-04 20:51 | 47.41692 | 16.45468 | 26067 ft | 387 kts | 22° |
| 2026-05-04 20:51 | 47.44157 | 16.47062 | 26068 ft | 387 kts | 22° |
| 2026-05-04 20:51 | 47.46625 | 16.48655 | 26064 ft | 387 kts | 21° |
| 2026-05-04 20:52 | 47.49092 | 16.50248 | 26060 ft | 387 kts | 20° |
| 2026-05-04 20:52 | 47.51525 | 16.51820 | 26061 ft | 387 kts | 21° |
| 2026-05-04 20:52 | 47.54021 | 16.53435 | 26057 ft | 386 kts | 22° |
| 2026-05-04 20:52 | 47.56449 | 16.55010 | 26057 ft | 387 kts | 22° |
| 2026-05-04 20:53 | 47.58917 | 16.56613 | 26056 ft | 387 kts | 20° |
| 2026-05-04 20:53 | 47.61380 | 16.58213 | 26054 ft | 387 kts | 22° |
| 2026-05-04 20:53 | 47.63842 | 16.59810 | 26053 ft | 387 kts | 22° |
| 2026-05-04 20:53 | 47.66307 | 16.61413 | 26055 ft | 387 kts | 21° |
| 2026-05-04 20:54 | 47.68773 | 16.63017 | 26055 ft | 387 kts | 22° |
| 2026-05-04 20:54 | 47.71239 | 16.64624 | 25973 ft | 387 kts | 21° |
| 2026-05-04 20:54 | 47.73688 | 16.66225 | 25587 ft | 382 kts | 20° |
| 2026-05-04 20:54 | 47.76110 | 16.67813 | 25127 ft | 379 kts | 21° |
| 2026-05-04 20:55 | 47.78509 | 16.69390 | 24666 ft | 375 kts | 22° |
| 2026-05-04 20:55 | 47.80891 | 16.70955 | 24192 ft | 373 kts | 23° |
| 2026-05-04 20:55 | 47.83259 | 16.72507 | 23724 ft | 371 kts | 22° |
| 2026-05-04 20:55 | 47.85614 | 16.74050 | 23184 ft | 369 kts | 23° |
| 2026-05-04 20:56 | 47.87949 | 16.75583 | 22708 ft | 365 kts | 23° |
| 2026-05-04 20:56 | 47.90267 | 16.77107 | 22224 ft | 362 kts | 22° |
| 2026-05-04 20:56 | 47.92566 | 16.78617 | 21752 ft | 360 kts | 22° |
| 2026-05-04 20:56 | 47.94853 | 16.80119 | 21271 ft | 358 kts | 22° |
| 2026-05-04 20:57 | 47.97204 | 16.81287 | 20797 ft | 355 kts | 10° |
| 2026-05-04 20:57 | 47.99637 | 16.81681 | 20335 ft | 352 kts | 358° |
| 2026-05-04 20:57 | 48.02057 | 16.81310 | 19877 ft | 349 kts | 346° |
| 2026-05-04 20:57 | 48.04359 | 16.80212 | 19415 ft | 347 kts | 334° |
| 2026-05-04 20:58 | 48.06510 | 16.78592 | 18958 ft | 346 kts | 330° |
| 2026-05-04 20:58 | 48.08647 | 16.76941 | 18502 ft | 346 kts | 330° |
| 2026-05-04 20:58 | 48.10789 | 16.75293 | 17990 ft | 346 kts | 331° |
| 2026-05-04 20:58 | 48.12898 | 16.73674 | 17543 ft | 344 kts | 330° |
| 2026-05-04 20:59 | 48.15019 | 16.72043 | 17109 ft | 342 kts | 332° |
| 2026-05-04 20:59 | 48.17124 | 16.70418 | 16675 ft | 340 kts | 331° |
| 2026-05-04 20:59 | 48.19221 | 16.68795 | 16247 ft | 338 kts | 331° |
| 2026-05-04 20:59 | 48.21308 | 16.67184 | 15805 ft | 337 kts | 332° |
| 2026-05-04 21:00 | 48.23493 | 16.65909 | 15390 ft | 338 kts | 342° |
| 2026-05-04 21:00 | 48.25753 | 16.64958 | 14963 ft | 337 kts | 343° |
| 2026-05-04 21:00 | 48.28010 | 16.64012 | 14531 ft | 336 kts | 342° |
| 2026-05-04 21:00 | 48.30261 | 16.63071 | 14101 ft | 336 kts | 342° |
| 2026-05-04 21:01 | 48.32508 | 16.62128 | 13653 ft | 335 kts | 342° |
| 2026-05-04 21:01 | 48.34748 | 16.61186 | 13205 ft | 334 kts | 342° |
| 2026-05-04 21:01 | 48.36976 | 16.60249 | 12781 ft | 331 kts | 342° |
| 2026-05-04 21:01 | 48.39169 | 16.59324 | 12591 ft | 321 kts | 343° |
| 2026-05-04 21:02 | 48.41283 | 16.58431 | 12461 ft | 311 kts | 342° |
| 2026-05-04 21:02 | 48.43331 | 16.57565 | 12330 ft | 301 kts | 342° |
| 2026-05-04 21:02 | 48.45312 | 16.56725 | 12177 ft | 292 kts | 342° |
| 2026-05-04 21:02 | 48.47255 | 16.55900 | 11921 ft | 289 kts | 342° |
| 2026-05-04 21:03 | 48.49209 | 16.55070 | 11539 ft | 290 kts | 342° |
| 2026-05-04 21:03 | 48.51109 | 16.54129 | 11229 ft | 285 kts | 330° |
| 2026-05-04 21:03 | 48.52596 | 16.52273 | 10675 ft | 275 kts | 302° |
| 2026-05-04 21:03 | 48.53328 | 16.49677 | 10066 ft | 268 kts | 275° |
| 2026-05-04 21:04 | 48.53228 | 16.46938 | 9412 ft | 261 kts | 252° |
| 2026-05-04 21:04 | 48.52582 | 16.44409 | 8717 ft | 257 kts | 234° |
| 2026-05-04 21:04 | 48.51310 | 16.42626 | 8147 ft | 248 kts | 206° |
| 2026-05-04 21:04 | 48.49672 | 16.42026 | 7688 ft | 244 kts | 179° |
| 2026-05-04 21:05 | 48.47993 | 16.42523 | 7241 ft | 248 kts | 166° |
| 2026-05-04 21:05 | 48.46325 | 16.43226 | 6841 ft | 248 kts | 166° |
| 2026-05-04 21:05 | 48.44661 | 16.43946 | 6336 ft | 247 kts | 166° |
| 2026-05-04 21:05 | 48.43065 | 16.44638 | 6091 ft | 227 kts | 166° |
| 2026-05-04 21:06 | 48.41619 | 16.45250 | 6041 ft | 205 kts | 168° |
| 2026-05-04 21:06 | 48.40310 | 16.45774 | 6011 ft | 187 kts | 167° |
| 2026-05-04 21:06 | 48.39108 | 16.46275 | 5926 ft | 172 kts | 167° |
| 2026-05-04 21:06 | 48.37984 | 16.46752 | 5774 ft | 164 kts | 167° |
| 2026-05-04 21:07 | 48.36915 | 16.47207 | 5585 ft | 156 kts | 167° |
| 2026-05-04 21:07 | 48.35895 | 16.47642 | 5396 ft | 149 kts | 167° |
| 2026-05-04 21:07 | 48.34921 | 16.48058 | 5211 ft | 142 kts | 167° |
| 2026-05-04 21:07 | 48.33989 | 16.48456 | 5028 ft | 136 kts | 167° |
| 2026-05-04 21:08 | 48.33086 | 16.48841 | 4849 ft | 136 kts | 169° |
| 2026-05-04 21:08 | 48.32184 | 16.49226 | 4674 ft | 134 kts | 168° |
| 2026-05-04 21:08 | 48.31293 | 16.49606 | 4507 ft | 132 kts | 168° |
| 2026-05-04 21:08 | 48.30407 | 16.49984 | 4331 ft | 132 kts | 168° |
| 2026-05-04 21:09 | 48.29532 | 16.50357 | 4085 ft | 134 kts | 164° |
| 2026-05-04 21:09 | 48.28639 | 16.50738 | 3918 ft | 133 kts | 168° |
| 2026-05-04 21:09 | 48.27761 | 16.51112 | 3738 ft | 130 kts | 167° |
| 2026-05-04 21:09 | 48.26889 | 16.51483 | 3553 ft | 130 kts | 168° |
| 2026-05-04 21:10 | 48.26018 | 16.51854 | 3377 ft | 130 kts | 168° |
| 2026-05-04 21:10 | 48.25137 | 16.52229 | 3200 ft | 130 kts | 168° |
| 2026-05-04 21:10 | 48.24271 | 16.52598 | 3026 ft | 129 kts | 168° |
| 2026-05-04 21:10 | 48.23418 | 16.52961 | 2848 ft | 129 kts | 168° |
| 2026-05-04 21:11 | 48.22555 | 16.53327 | 2681 ft | 129 kts | 167° |
| 2026-05-04 21:11 | 48.21693 | 16.53694 | 2510 ft | 127 kts | 167° |
| 2026-05-04 21:11 | 48.20840 | 16.54057 | 2344 ft | 127 kts | 168° |
| 2026-05-04 21:11 | 48.19993 | 16.54417 | 2169 ft | 126 kts | 168° |
| 2026-05-04 21:12 | 48.19147 | 16.54776 | 2000 ft | 126 kts | 168° |
| 2026-05-04 21:12 | 48.18306 | 16.55133 | 1831 ft | 126 kts | 168° |
| 2026-05-04 21:12 | 48.17466 | 16.55489 | 1665 ft | 126 kts | 168° |
| 2026-05-04 21:12 | 48.16629 | 16.55844 | 1497 ft | 124 kts | 168° |
| 2026-05-04 21:13 | 48.15789 | 16.56200 | 1331 ft | 126 kts | 168° |
| 2026-05-04 21:13 | 48.14945 | 16.56555 | 1173 ft | 128 kts | 164° |
| 2026-05-04 21:13 | 48.14088 | 16.56918 | 1010 ft | 125 kts | 162° |
| 2026-05-04 21:13 | 48.13248 | 16.57278 | 869 ft | 125 kts | 161° |
| 2026-05-04 21:14 | 48.12414 | 16.57635 | 727 ft | 124 kts | 162° |
| 2026-05-04 21:14 | 48.11592 | 16.57971 | 620 ft | 115 kts | 162° |
| 2026-05-04 21:14 | 48.10923 | 16.58270 | 608 ft | 81 kts | 162° |
| 2026-05-04 21:14 | 48.10538 | 16.58418 | 609 ft | 33 kts | 164° |
| 2026-05-04 21:15 | 48.10329 | 16.58460 | 605 ft | 30 kts | 184° |
| 2026-05-04 21:15 | 48.10136 | 16.58379 | 614 ft | 22 kts | 229° |
| 2026-05-04 21:15 | 48.10177 | 16.58293 | 605 ft | 10 kts | 347° |
| 2026-05-04 21:15 | 48.10249 | 16.58268 | 615 ft | 11 kts | 345° |
| 2026-05-04 21:16 | 48.10335 | 16.58234 | 606 ft | 14 kts | 345° |
| 2026-05-04 21:16 | 48.10423 | 16.58197 | 615 ft | 13 kts | 344° |
| 2026-05-04 21:16 | 48.10550 | 16.58144 | 607 ft | 24 kts | 345° |
| 2026-05-04 21:16 | 48.10708 | 16.58076 | 610 ft | 23 kts | 345° |
| 2026-05-04 21:17 | 48.10859 | 16.58013 | 605 ft | 22 kts | 343° |
| 2026-05-04 21:17 | 48.11013 | 16.57946 | 616 ft | 25 kts | 343° |
| 2026-05-04 21:17 | 48.11183 | 16.57877 | 616 ft | 26 kts | 345° |
| 2026-05-04 21:17 | 48.11363 | 16.57799 | 613 ft | 28 kts | 343° |
| 2026-05-04 21:18 | 48.11498 | 16.57666 | 607 ft | 23 kts | 306° |
| 2026-05-04 21:18 | 48.11629 | 16.57544 | 607 ft | 23 kts | 346° |
| 2026-05-04 21:18 | 48.11774 | 16.57475 | 608 ft | 20 kts | 330° |
| 2026-05-04 21:18 | 48.11819 | 16.57318 | 617 ft | 16 kts | 294° |
| 2026-05-04 21:19 | 48.11858 | 16.57169 | 606 ft | 15 kts | 277° |
| 2026-05-04 21:19 | 48.11892 | 16.57024 | 613 ft | 15 kts | 294° |
| 2026-05-04 21:19 | 48.11930 | 16.56914 | 606 ft | 9 kts | 297° |
| 2026-05-04 21:19 | 48.11912 | 16.56846 | 611 ft | 8 kts | 213° |
| 2026-05-04 21:20 | 48.11882 | 16.56824 | 608 ft | 0 kts | 206° |